Time;durP1;ratioP1;P1;durP2;ratioP2;P2;SDS_P1;SDS_P2;PMS_P1;PMS_P2;Temp;Humidity;BMP_temperature;BMP_pressure;BME280_temperature;BME280_humidity;BME280_pressure;Samples;Min_cycle;Max_cycle;Signal;HPM_P1;HPM_P2
2023/01/26 00:02:21;;;;;;;;;;;;;;;0.07;75.05;102156.59;108186;1264;67074;-81
2023/01/26 00:04:49;;;;;;;;;;;;;;;0.05;75.15;102148.31;108214;1264;124087;-80
2023/01/26 00:07:15;;;;;;;;;;;;;;;0.07;75.01;102147.48;108340;1264;59150;-80
2023/01/26 00:09:42;;;;;;;;;;;;;;;0.06;75.04;102143.50;108169;1269;126139;-80
2023/01/26 00:12:09;;;;;;;;;;;;;;;0.03;75.04;102134.66;108253;1264;74744;-80
2023/01/26 00:14:48;;;;;;;;;;;;;;;0.03;75.15;102121.90;108284;1264;67802;-81
2023/01/26 00:17:24;;;;;;;;;;;;;;;0.02;75.13;102115.77;108143;1264;124306;-80
2023/01/26 00:19:52;;;;;;;;;;;;;;;0.03;75.22;102111.21;108093;1264;59515;-80
2023/01/26 00:22:20;;;;;;;;;;;;;;;0.04;75.16;102112.33;108058;1264;124873;-80
2023/01/26 00:24:47;;;;;;;;;;;;;;;0.03;75.22;102117.42;108212;1264;74529;-80
2023/01/26 00:27:14;;;;;;;;;;;;;;;0.05;75.18;102121.01;107987;1264;125410;-81
2023/01/26 00:29:44;;;;;;;;;;;;;;;0.04;75.05;102120.98;108247;1264;72319;-80
2023/01/26 00:32:10;;;;;;;;;;;;;;;0.05;75.34;102121.91;107992;1264;59376;-80
2023/01/26 00:34:37;;;;;;;;;;;;;;;0.06;75.32;102125.27;108233;1264;126343;-81
2023/01/26 00:37:04;;;;;;;;;;;;;;;0.08;75.21;102123.73;108229;1264;75246;-80
2023/01/26 00:39:31;;;;;;;;;;;;;;;0.10;75.29;102120.95;108121;1264;125885;-80
2023/01/26 00:42:10;;;;;;;;;;;;;;;0.13;75.26;102114.38;108293;1264;71428;-80
2023/01/26 00:44:37;;;;;;;;;;;;;;;0.16;75.14;102118.36;108109;1267;59444;-80
2023/01/26 00:47:04;;;;;;;;;;;;;;;0.19;75.29;102116.92;108073;1267;125477;-80
2023/01/26 00:49:31;;;;;;;;;;;;;;;0.23;75.16;102116.77;108265;1264;75292;-80
2023/01/26 00:51:59;;;;;;;;;;;;;;;0.23;75.11;102110.89;108203;1264;124773;-81
2023/01/26 00:54:26;;;;;;;;;;;;;;;0.24;75.00;102101.46;108258;1264;71404;-81
2023/01/26 00:56:53;;;;;;;;;;;;;;;0.27;74.85;102097.40;108102;1264;59827;-81
2023/01/26 00:59:20;;;;;;;;;;;;;;;0.29;75.04;102096.40;108070;1270;125529;-81
2023/01/26 01:01:47;;;;;;;;;;;;;;;0.31;74.99;102091.75;108246;1264;75254;-81
2023/01/26 01:04:14;;;;;;;;;;;;;;;0.34;75.06;102087.02;107941;1264;125428;-81
2023/01/26 01:06:41;;;;;;;;;;;;;;;0.37;74.97;102081.74;108163;1264;72166;-81
2023/01/26 01:09:08;;;;;;;;;;;;;;;0.40;74.98;102085.27;108241;1264;59088;-81
2023/01/26 01:11:35;;;;;;;;;;;;;;;0.41;74.81;102082.06;108197;1264;125256;-81
2023/01/26 01:14:02;;;;;;;;;;;;;;;0.42;74.77;102077.99;108166;1264;75350;-81
2023/01/26 01:16:29;;;;;;;;;;;;;;;0.44;74.97;102069.15;108213;1264;124064;-81
2023/01/26 01:18:56;;;;;;;;;;;;;;;0.43;74.76;102065.95;108307;1264;71412;-81
2023/01/26 01:21:23;;;;;;;;;;;;;;;0.42;74.84;102061.96;108235;1264;124492;-82
2023/01/26 01:23:50;;;;;;;;;;;;;;;0.41;74.84;102068.08;108254;1264;59066;-82
2023/01/26 01:26:17;;;;;;;;;;;;;;;0.42;74.84;102063.29;108226;1265;73356;-81
2023/01/26 01:28:44;;;;;;;;;;;;;;;0.42;74.81;102068.15;107984;1264;124872;-81
2023/01/26 01:31:14;;;;;;;;;;;;;;;0.38;74.79;102070.45;108257;1264;71122;-82
2023/01/26 01:33:41;;;;;;;;;;;;;;;0.38;74.79;102066.06;108160;1264;124654;-82
2023/01/26 01:36:09;;;;;;;;;;;;;;;0.39;74.84;102065.50;108180;1264;60656;-81
2023/01/26 01:38:36;;;;;;;;;;;;;;;0.40;74.92;102067.77;108199;1264;73150;-80
2023/01/26 01:41:03;;;;;;;;;;;;;;;0.39;74.88;102063.77;108124;1264;124967;-80
2023/01/26 01:43:30;;;;;;;;;;;;;;;0.38;74.84;102064.38;108290;1264;73249;-79
2023/01/26 01:45:57;;;;;;;;;;;;;;;0.35;74.68;102059.43;108176;1264;125902;-80
2023/01/26 01:48:27;;;;;;;;;;;;;;;0.31;74.81;102056.67;108281;1264;60027;-80
2023/01/26 01:50:55;;;;;;;;;;;;;;;0.25;74.64;102054.27;108223;1264;74394;-80
2023/01/26 01:53:33;;;;;;;;;;;;;;;0.25;74.93;102054.89;108181;1264;124682;-81
2023/01/26 01:56:01;;;;;;;;;;;;;;;0.28;74.94;102054.16;108195;1264;72247;-80
2023/01/26 01:58:28;;;;;;;;;;;;;;;0.28;75.02;102052.63;108092;1264;124316;-80
2023/01/26 02:00:55;;;;;;;;;;;;;;;0.28;74.97;102044.67;108213;1266;59648;-80
2023/01/26 02:03:22;;;;;;;;;;;;;;;0.30;75.01;102043.80;108018;1264;125025;-80
2023/01/26 02:05:49;;;;;;;;;;;;;;;0.30;74.76;102040.50;108086;1264;66937;-80
2023/01/26 02:08:17;;;;;;;;;;;;;;;0.28;74.94;102036.94;108330;1268;72856;-79
2023/01/26 02:10:45;;;;;;;;;;;;;;;0.26;74.88;102030.50;108051;1276;124558;-80
2023/01/26 02:13:12;;;;;;;;;;;;;;;0.26;75.17;102024.85;108243;1264;59669;-81
2023/01/26 02:15:39;;;;;;;;;;;;;;;0.26;75.16;102025.30;108168;1264;124261;-80
2023/01/26 02:18:07;;;;;;;;;;;;;;;0.24;75.07;102025.81;108283;1264;67116;-80
2023/01/26 02:20:33;;;;;;;;;;;;;;;0.22;75.02;102027.59;108120;1264;72694;-80
2023/01/26 02:23:10;;;;;;;;;;;;;;;0.22;74.97;102023.77;108146;1269;126302;-80
2023/01/26 02:25:57;;;;;;;;;;;;;;;0.23;75.15;102017.09;108173;1264;59389;-80
2023/01/26 02:28:24;;;;;;;;;;;;;;;0.22;75.29;102010.69;108189;1266;124929;-79
2023/01/26 02:30:52;;;;;;;;;;;;;;;0.24;75.31;102012.76;108236;1270;66690;-80
2023/01/26 02:33:22;;;;;;;;;;;;;;;0.26;75.26;102008.38;108184;1264;125679;-80
2023/01/26 02:35:49;;;;;;;;;;;;;;;0.24;75.21;102007.73;108109;1264;59513;-80
2023/01/26 02:38:16;;;;;;;;;;;;;;;0.24;75.12;102008.20;108146;1264;59348;-81
2023/01/26 02:40:45;;;;;;;;;;;;;;;0.26;75.19;102004.80;108071;1270;124605;-80
2023/01/26 02:43:12;;;;;;;;;;;;;;;0.27;75.23;102007.67;108202;1264;65891;-80
2023/01/26 02:45:39;;;;;;;;;;;;;;;0.30;75.18;102002.35;108120;1264;125085;-79
2023/01/26 02:48:06;;;;;;;;;;;;;;;0.36;75.62;101997.01;108328;1264;59424;-80
2023/01/26 02:50:33;;;;;;;;;;;;;;;0.42;75.32;101989.73;108298;1264;60181;-80
2023/01/26 02:53:01;;;;;;;;;;;;;;;0.41;75.27;101982.74;108071;1264;126057;-80
2023/01/26 02:55:27;;;;;;;;;;;;;;;0.38;75.21;101982.03;108013;1264;66773;-80
2023/01/26 02:57:55;;;;;;;;;;;;;;;0.37;75.20;101981.19;108207;1264;125289;-80
2023/01/26 03:00:36;;;;;;;;;;;;;;;0.35;75.34;101982.59;108175;1264;59341;-80
2023/01/26 03:03:05;;;;;;;;;;;;;;;0.37;75.35;101984.70;108245;1264;59849;-84
2023/01/26 03:05:32;;;;;;;;;;;;;;;0.36;75.18;101980.13;107974;1264;125074;-81
2023/01/26 03:08:00;;;;;;;;;;;;;;;0.35;75.38;101973.44;108328;1264;65825;-80
2023/01/26 03:10:26;;;;;;;;;;;;;;;0.35;75.24;101973.27;108200;1264;124680;-81
2023/01/26 03:12:53;;;;;;;;;;;;;;;0.37;75.56;101970.67;108306;1264;59482;-80
2023/01/26 03:29:08;;;;;;;;;;;;;;;0.45;75.38;101986.40;108263;1264;124392;-80
2023/01/26 03:31:35;;;;;;;;;;;;;;;0.46;75.30;101982.65;108384;1264;73165;-80
2023/01/26 03:34:02;;;;;;;;;;;;;;;0.45;75.38;101982.11;108207;1264;124037;-81
2023/01/26 03:36:29;;;;;;;;;;;;;;;0.45;75.66;101985.02;108275;1264;71677;-80
2023/01/26 03:38:56;;;;;;;;;;;;;;;0.45;75.35;101984.67;108251;1268;59391;-80
2023/01/26 03:57:55;;;;;;;;;;;;;;;0.35;75.38;101975.49;108137;1267;124882;-81
2023/01/26 04:00:22;;;;;;;;;;;;;;;0.31;75.53;101973.48;108313;1266;67569;-80
2023/01/26 04:08:23;;;;;;;;;;;;;;;0.33;75.61;101968.27;108199;1265;61314;-80
2023/01/26 04:10:53;;;;;;;;;;;;;;;0.34;75.74;101971.64;108034;1264;126388;-80
2023/01/26 04:21:37;;;;;;;;;;;;;;;0.42;75.79;101961.58;108208;1264;126099;-80
2023/01/26 04:24:12;;;;;;;;;;;;;;;0.44;75.70;101954.85;108299;1269;73158;-81
2023/01/26 04:26:40;;;;;;;;;;;;;;;0.45;75.64;101947.02;108292;1264;67132;-80
2023/01/26 04:29:08;;;;;;;;;;;;;;;0.45;75.74;101942.21;107948;1269;125429;-80
2023/01/26 04:31:35;;;;;;;;;;;;;;;0.49;75.80;101942.85;108019;1264;59489;-80
2023/01/26 04:34:02;;;;;;;;;;;;;;;0.52;75.71;101942.95;108055;1280;126381;-79
2023/01/26 04:36:29;;;;;;;;;;;;;;;0.52;75.57;101938.98;108204;1265;74879;-80
2023/01/26 04:38:56;;;;;;;;;;;;;;;0.54;75.71;101937.10;108268;1264;65624;-80
2023/01/26 04:41:23;;;;;;;;;;;;;;;0.59;75.68;101934.52;108149;1264;125849;-79
2023/01/26 04:43:50;;;;;;;;;;;;;;;0.62;75.74;101931.48;108259;1264;59470;-79
2023/01/26 04:46:17;;;;;;;;;;;;;;;0.64;75.51;101927.88;107821;1273;125390;-80
2023/01/26 04:48:43;;;;;;;;;;;;;;;0.68;75.56;101926.11;108215;1269;73435;-80
2023/01/26 04:51:11;;;;;;;;;;;;;;;0.70;75.27;101931.81;108314;1264;67233;-79
2023/01/26 04:53:38;;;;;;;;;;;;;;;0.69;75.41;101930.23;108309;1264;73123;-80
2023/01/26 04:56:07;;;;;;;;;;;;;;;0.67;75.17;101928.17;108197;1264;59507;-80
2023/01/26 04:58:34;;;;;;;;;;;;;;;0.67;75.24;101929.85;108229;1265;124901;-79
2023/01/26 05:01:01;;;;;;;;;;;;;;;0.64;75.14;101932.75;108289;1265;74573;-79
2023/01/26 05:03:28;;;;;;;;;;;;;;;0.63;75.06;101934.16;108066;1264;124209;-79
2023/01/26 05:05:55;;;;;;;;;;;;;;;0.59;75.04;101934.55;108095;1265;72531;-78
2023/01/26 05:08:22;;;;;;;;;;;;;;;0.55;75.05;101932.89;107922;1264;60129;-78
2023/01/26 05:10:51;;;;;;;;;;;;;;;0.49;75.01;101933.88;108210;1268;124570;-78
2023/01/26 05:13:18;;;;;;;;;;;;;;;0.47;75.22;101936.45;108307;1265;72469;-78
2023/01/26 05:15:45;;;;;;;;;;;;;;;0.46;75.26;101934.34;108090;1267;126001;-78
2023/01/26 05:18:12;;;;;;;;;;;;;;;0.43;75.19;101933.06;108107;1280;72798;-80
2023/01/26 05:20:39;;;;;;;;;;;;;;;0.43;75.34;101929.70;108296;1264;59611;-80
2023/01/26 05:23:06;;;;;;;;;;;;;;;0.42;75.30;101934.16;108020;1265;124026;-80
2023/01/26 05:25:32;;;;;;;;;;;;;;;0.42;75.38;101936.20;108101;1269;75179;-80
2023/01/26 05:27:59;;;;;;;;;;;;;;;0.37;75.16;101937.19;108058;1265;125251;-80
2023/01/26 05:30:26;;;;;;;;;;;;;;;0.33;75.34;101937.18;108252;1267;72450;-80
2023/01/26 05:32:53;;;;;;;;;;;;;;;0.31;75.47;101939.44;108271;1264;59430;-79
2023/01/26 05:35:20;;;;;;;;;;;;;;;0.28;75.39;101942.27;108143;1264;124654;-79
2023/01/26 05:37:47;;;;;;;;;;;;;;;0.20;75.36;101941.11;108267;1265;74718;-79
2023/01/26 05:40:14;;;;;;;;;;;;;;;0.17;75.32;101945.30;108159;1269;127183;-79
2023/01/26 05:42:41;;;;;;;;;;;;;;;0.12;75.34;101946.48;108259;1264;72717;-79
2023/01/26 05:45:08;;;;;;;;;;;;;;;0.10;75.45;101950.75;108239;1266;59438;-79
2023/01/26 05:47:35;;;;;;;;;;;;;;;0.07;75.57;101945.20;107983;1265;125326;-80
2023/01/26 05:50:02;;;;;;;;;;;;;;;0.07;75.65;101948.13;108100;1264;76381;-80
2023/01/26 05:52:29;;;;;;;;;;;;;;;0.06;75.63;101946.64;107979;1270;126637;-81
2023/01/26 05:54:56;;;;;;;;;;;;;;;0.07;75.63;101953.77;108165;1265;70129;-80
2023/01/26 05:57:23;;;;;;;;;;;;;;;0.08;75.68;101956.95;108101;1265;124956;-80
2023/01/26 05:59:50;;;;;;;;;;;;;;;0.10;75.76;101956.87;108170;1264;60941;-80
2023/01/26 06:02:17;;;;;;;;;;;;;;;0.13;75.72;101951.59;108118;1264;75962;-80
2023/01/26 06:04:43;;;;;;;;;;;;;;;0.18;75.79;101953.06;108165;1264;125472;-80
2023/01/26 06:07:12;;;;;;;;;;;;;;;0.24;75.90;101953.35;108183;1264;73403;-80
2023/01/26 06:09:39;;;;;;;;;;;;;;;0.28;75.92;101952.67;107920;1264;125154;-79
2023/01/26 06:12:08;;;;;;;;;;;;;;;0.35;75.94;101954.28;108136;1265;59378;-79
2023/01/26 06:14:35;;;;;;;;;;;;;;;0.41;75.88;101951.36;108075;1264;74480;-79
2023/01/26 06:17:02;;;;;;;;;;;;;;;0.47;75.84;101951.64;108108;1270;124567;-79
2023/01/26 06:19:29;;;;;;;;;;;;;;;0.48;75.54;101948.63;108075;1264;71326;-80
2023/01/26 06:21:56;;;;;;;;;;;;;;;0.46;75.45;101946.75;107996;1268;126480;-80
2023/01/26 06:24:23;;;;;;;;;;;;;;;0.47;75.50;101945.77;108075;1265;60275;-80
2023/01/26 06:26:49;;;;;;;;;;;;;;;0.45;75.43;101946.86;108064;1269;73119;-80
2023/01/26 06:29:16;;;;;;;;;;;;;;;0.44;75.26;101949.34;108084;1267;124440;-80
2023/01/26 06:31:43;;;;;;;;;;;;;;;0.41;75.30;101949.94;108091;1264;72910;-80
2023/01/26 06:34:10;;;;;;;;;;;;;;;0.38;75.20;101947.49;108095;1264;125790;-80
2023/01/26 06:36:37;;;;;;;;;;;;;;;0.29;75.10;101953.27;108290;1264;59406;-80
2023/01/26 06:39:04;;;;;;;;;;;;;;;0.19;74.96;101953.42;108319;1267;74415;-80
2023/01/26 06:41:31;;;;;;;;;;;;;;;0.15;75.16;101952.64;108016;1267;125136;-80
2023/01/26 06:43:58;;;;;;;;;;;;;;;0.13;75.26;101954.88;108189;1268;71412;-80
2023/01/26 06:46:25;;;;;;;;;;;;;;;0.11;75.26;101956.36;107957;1270;124968;-80
2023/01/26 06:48:52;;;;;;;;;;;;;;;0.09;75.30;101954.10;108097;1270;60202;-80
2023/01/26 06:51:19;;;;;;;;;;;;;;;0.05;75.30;101959.70;108083;1280;125821;-80
2023/01/26 06:53:47;;;;;;;;;;;;;;;0.09;75.56;101960.66;108324;1264;65799;-80
2023/01/26 06:56:14;;;;;;;;;;;;;;;0.06;75.37;101955.45;108223;1269;73185;-80
2023/01/26 06:58:41;;;;;;;;;;;;;;;0.03;75.35;101956.70;108090;1270;125685;-80
2023/01/26 07:01:18;;;;;;;;;;;;;;;0.03;75.50;101954.77;108258;1264;59673;-80
2023/01/26 07:03:46;;;;;;;;;;;;;;;0.09;75.70;101956.17;107984;1269;125760;-80
2023/01/26 07:06:13;;;;;;;;;;;;;;;0.15;75.67;101952.94;108125;1267;65968;-80
2023/01/26 07:08:40;;;;;;;;;;;;;;;0.24;75.86;101951.47;108250;1265;72682;-80
2023/01/26 07:11:07;;;;;;;;;;;;;;;0.32;75.75;101949.20;108154;1280;125160;-80
2023/01/26 07:13:34;;;;;;;;;;;;;;;0.37;75.60;101951.17;108099;1267;59969;-79
2023/01/26 07:16:01;;;;;;;;;;;;;;;0.44;75.63;101949.13;107940;1264;125235;-79
2023/01/26 07:18:28;;;;;;;;;;;;;;;0.50;75.78;101947.99;108264;1267;67464;-80
2023/01/26 07:20:59;;;;;;;;;;;;;;;0.55;75.59;101946.27;108105;1269;72684;-80
2023/01/26 07:23:26;;;;;;;;;;;;;;;0.60;75.53;101942.72;108225;1265;124799;-80
2023/01/26 07:25:52;;;;;;;;;;;;;;;0.62;75.52;101933.73;108297;1264;59285;-80
2023/01/26 07:28:22;;;;;;;;;;;;;;;0.64;75.55;101934.13;108091;1265;125672;-80
2023/01/26 07:30:56;;;;;;;;;;;;;;;0.71;75.64;101935.87;108029;1265;67410;-80
2023/01/26 07:33:24;;;;;;;;;;;;;;;0.78;75.43;101936.13;108149;1268;125023;-80
2023/01/26 07:35:54;;;;;;;;;;;;;;;0.82;75.42;101940.77;108165;1267;59414;-80
2023/01/26 07:38:21;;;;;;;;;;;;;;;0.88;75.37;101944.70;108150;1266;59499;-80
2023/01/26 07:40:49;;;;;;;;;;;;;;;0.91;75.19;101944.62;108031;1264;123971;-80
2023/01/26 07:43:16;;;;;;;;;;;;;;;0.94;75.12;101943.38;108269;1269;67539;-80
2023/01/26 07:45:46;;;;;;;;;;;;;;;0.93;75.04;101941.86;108092;1267;125954;-80
2023/01/26 07:48:14;;;;;;;;;;;;;;;0.94;75.08;101939.16;108253;1267;59366;-80
2023/01/26 07:50:42;;;;;;;;;;;;;;;0.93;74.87;101933.59;108211;1268;59553;-80
2023/01/26 07:53:11;;;;;;;;;;;;;;;0.89;74.86;101930.84;107953;1272;124872;-80
2023/01/26 07:55:38;;;;;;;;;;;;;;;0.90;74.85;101931.60;108208;1264;66936;-80
2023/01/26 07:58:05;;;;;;;;;;;;;;;0.95;75.04;101926.81;108169;1269;124531;-80
2023/01/26 08:00:32;;;;;;;;;;;;;;;1.01;74.89;101920.74;108222;1270;59546;-80
2023/01/26 08:02:59;;;;;;;;;;;;;;;1.07;74.88;101916.58;108321;1264;60268;-80
2023/01/26 08:05:27;;;;;;;;;;;;;;;1.11;74.81;101913.07;108280;1267;124604;-80
2023/01/26 08:08:08;;;;;;;;;;;;;;;1.14;74.79;101910.93;108355;1269;67165;-80
2023/01/26 08:10:57;;;;;;;;;;;;;;;1.20;74.89;101914.33;108210;1264;124424;-80
2023/01/26 08:13:25;;;;;;;;;;;;;;;1.22;74.85;101910.85;108295;1266;59338;-80
2023/01/26 08:15:59;;;;;;;;;;;;;;;1.22;74.58;101905.67;108155;1264;125023;-81
2023/01/26 08:18:27;;;;;;;;;;;;;;;1.20;74.42;101905.85;108169;1264;73220;-80
2023/01/26 08:20:56;;;;;;;;;;;;;;;1.19;74.48;101907.83;108298;1268;67744;-80
2023/01/26 08:23:32;;;;;;;;;;;;;;;1.21;74.47;101909.55;108259;1267;125322;-80
2023/01/26 08:26:13;;;;;;;;;;;;;;;1.26;74.54;101908.06;108260;1264;59566;-80
2023/01/26 08:28:49;;;;;;;;;;;;;;;1.36;74.59;101906.83;108101;1264;126355;-80
2023/01/26 08:31:20;;;;;;;;;;;;;;;1.45;74.61;101904.09;108120;1264;289291;-80
2023/01/26 08:34:02;;;;;;;;;;;;;;;1.45;74.15;101894.23;108167;1270;124384;-80
2023/01/26 08:36:30;;;;;;;;;;;;;;;1.46;74.20;101894.42;108321;1268;73095;-80
2023/01/26 08:39:21;;;;;;;;;;;;;;;1.45;73.99;101896.25;108255;1267;59917;-80
2023/01/26 08:41:58;;;;;;;;;;;;;;;1.53;74.30;101902.80;108139;1265;60637;-84
2023/01/26 08:44:26;;;;;;;;;;;;;;;1.63;74.61;101899.13;108293;1269;73408;-81
2023/01/26 08:46:53;;;;;;;;;;;;;;;1.70;74.32;101896.37;108187;1267;125125;-82
2023/01/26 08:49:20;;;;;;;;;;;;;;;1.72;73.93;101898.27;108290;1269;72572;-83
2023/01/26 08:51:47;;;;;;;;;;;;;;;1.72;73.75;101895.67;108114;1267;125626;-83
2023/01/26 08:54:14;;;;;;;;;;;;;;;1.75;74.03;101898.65;108254;1264;59278;-83
2023/01/26 08:56:41;;;;;;;;;;;;;;;1.86;74.23;101898.79;108306;1264;74754;-83
2023/01/26 08:59:08;;;;;;;;;;;;;;;1.92;74.00;101895.69;108192;1264;125143;-83
2023/01/26 09:01:38;;;;;;;;;;;;;;;1.95;73.78;101890.34;108227;1265;72713;-83
2023/01/26 09:04:06;;;;;;;;;;;;;;;1.97;73.87;101885.67;108120;1267;124667;-83
2023/01/26 09:06:33;;;;;;;;;;;;;;;2.05;73.68;101884.71;108263;1267;60848;-83
2023/01/26 09:09:00;;;;;;;;;;;;;;;2.10;73.58;101879.56;108239;1264;73429;-83
2023/01/26 09:11:27;;;;;;;;;;;;;;;2.14;73.64;101878.88;108143;1268;123921;-82
2023/01/26 09:13:57;;;;;;;;;;;;;;;2.19;73.50;101874.56;108141;1267;71838;-82
2023/01/26 09:16:24;;;;;;;;;;;;;;;2.18;73.38;101875.86;108193;1264;124179;-82
2023/01/26 09:18:52;;;;;;;;;;;;;;;2.22;73.42;101876.84;108296;1267;59528;-82
2023/01/26 09:21:19;;;;;;;;;;;;;;;2.24;73.35;101876.17;108282;1267;124223;-81
2023/01/26 09:23:47;;;;;;;;;;;;;;;2.24;73.33;101875.96;108285;1266;67434;-82
2023/01/26 09:26:14;;;;;;;;;;;;;;;2.26;73.38;101878.22;108378;1267;71554;-82
2023/01/26 09:28:41;;;;;;;;;;;;;;;2.28;73.26;101872.77;108242;1267;125080;-81
2023/01/26 09:31:25;;;;;;;;;;;;;;;2.29;73.17;101870.47;108427;1264;59868;-81
2023/01/26 09:35:19;;;;;;;;;;;;;;;2.37;73.13;101869.67;106009;1287;612271;-82
2023/01/26 09:37:45;;;;;;;;;;;;;;;2.30;72.87;101875.88;108115;1269;58024;-81
2023/01/26 09:40:23;;;;;;;;;;;;;;;2.26;72.95;101877.51;108043;1270;123395;-82
2023/01/26 09:43:03;;;;;;;;;;;;;;;2.26;72.78;101876.09;107898;1275;71469;-81
2023/01/26 09:45:35;;;;;;;;;;;;;;;2.28;72.98;101875.59;107781;1269;123343;-81
2023/01/26 09:48:07;;;;;;;;;;;;;;;2.35;73.01;101876.81;107921;1267;249513;-81
2023/01/26 09:50:40;;;;;;;;;;;;;;;2.39;73.02;101875.52;108021;1267;57429;-82
2023/01/26 09:53:26;;;;;;;;;;;;;;;2.44;73.14;101874.39;107894;1269;125269;-83
2023/01/26 09:55:53;;;;;;;;;;;;;;;2.56;73.16;101874.71;108230;1267;72910;-83
2023/01/26 09:58:28;;;;;;;;;;;;;;;2.62;73.16;101872.77;108051;1267;124387;-80
2023/01/26 10:00:57;;;;;;;;;;;;;;;2.71;73.14;101878.84;108205;1267;72659;-81
2023/01/26 10:03:23;;;;;;;;;;;;;;;2.79;73.11;101876.49;108148;1267;124414;-82
2023/01/26 10:06:14;;;;;;;;;;;;;;;2.93;73.18;101872.81;108188;1267;58184;-82
2023/01/26 10:08:41;;;;;;;;;;;;;;;3.03;72.90;101867.30;107808;1267;72998;-81
2023/01/26 10:11:26;;;;;;;;;;;;;;;3.02;72.63;101867.08;108061;1266;124651;-82
2023/01/26 10:13:54;;;;;;;;;;;;;;;3.05;72.81;101861.16;108122;1267;72097;-81
2023/01/26 10:16:23;;;;;;;;;;;;;;;3.08;72.70;101864.92;108709;1260;124736;-81
2023/01/26 10:18:52;;;;;;;;;;;;;;;3.06;72.56;101862.29;108790;1257;59573;-81
2023/01/26 10:21:20;;;;;;;;;;;;;;;3.14;72.82;101863.56;108728;1260;124675;-82
2023/01/26 10:23:46;;;;;;;;;;;;;;;3.24;72.77;101866.23;109064;1259;66301;-82
2023/01/26 10:26:14;;;;;;;;;;;;;;;3.28;72.51;101867.77;109116;1255;71361;-82
2023/01/26 10:28:50;;;;;;;;;;;;;;;3.30;72.49;101869.62;109072;1256;123596;-81
2023/01/26 10:31:31;;;;;;;;;;;;;;;3.24;72.25;101868.98;108895;1255;60457;-82
2023/01/26 10:34:07;;;;;;;;;;;;;;;3.16;72.03;101867.00;108938;1256;123653;-83
2023/01/26 10:36:33;;;;;;;;;;;;;;;3.05;72.02;101863.27;109047;1256;66908;-82
2023/01/26 10:39:04;;;;;;;;;;;;;;;2.99;72.11;101859.23;108855;1255;57650;-82
2023/01/26 10:41:38;;;;;;;;;;;;;;;2.95;72.22;101861.17;108739;1256;179806;-83
2023/01/26 10:44:14;;;;;;;;;;;;;;;2.90;72.11;101868.09;108930;1256;57625;-82
2023/01/26 10:46:40;;;;;;;;;;;;;;;2.91;72.31;101862.63;108892;1256;123557;-83
2023/01/26 10:49:16;;;;;;;;;;;;;;;2.88;72.23;101860.64;108863;1259;67057;-83
2023/01/26 10:51:44;;;;;;;;;;;;;;;2.82;72.13;101856.55;108945;1255;123565;-83
2023/01/26 10:54:22;;;;;;;;;;;;;;;2.78;72.22;101848.99;108782;1271;57677;-83
2023/01/26 10:57:32;;;;;;;;;;;;;;;2.77;72.29;101848.37;108967;1254;59202;-83
2023/01/26 10:59:59;;;;;;;;;;;;;;;2.70;72.32;101850.48;108692;1265;73099;-83
2023/01/26 11:02:52;;;;;;;;;;;;;;;2.70;72.46;101847.21;109069;1256;67083;-83
2023/01/26 11:05:23;;;;;;;;;;;;;;;2.74;72.57;101845.95;108790;1254;124087;-83
2023/01/26 11:07:59;;;;;;;;;;;;;;;2.76;72.30;101846.61;108881;1255;57537;-83
2023/01/26 11:10:33;;;;;;;;;;;;;;;2.76;72.69;101845.37;108950;1256;124263;-83
2023/01/26 11:13:16;;;;;;;;;;;;;;;2.84;72.59;101844.40;108978;1257;72998;-82
2023/01/26 11:16:11;;;;;;;;;;;;;;;2.87;72.53;101843.60;109037;1254;123431;-82
2023/01/26 11:18:51;;;;;;;;;;;;;;;2.97;72.64;101842.38;109011;1256;71204;-83
2023/01/26 11:21:39;;;;;;;;;;;;;;;3.06;72.67;101837.85;108551;1254;59766;-83
2023/01/26 11:24:27;;;;;;;;;;;;;;;3.15;72.62;101840.05;107649;1258;59117;-82
2023/01/26 11:27:21;;;;;;;;;;;;;;;3.18;72.49;101836.27;107696;1256;72031;-83
2023/01/26 11:29:54;;;;;;;;;;;;;;;3.15;72.23;101835.52;107321;1260;123837;-82
2023/01/26 11:32:39;;;;;;;;;;;;;;;3.14;72.35;101828.69;108890;1258;73035;-83
2023/01/26 11:35:29;;;;;;;;;;;;;;;3.16;72.26;101825.91;108807;1254;124895;-84
2023/01/26 11:38:41;;;;;;;;;;;;;;;3.21;72.53;101821.60;109046;1256;59231;-81
2023/01/26 11:41:27;;;;;;;;;;;;;;;3.20;72.52;101818.39;109013;1256;123969;-82
2023/01/26 11:44:19;;;;;;;;;;;;;;;3.19;72.42;101819.89;109000;1254;68297;-82
2023/01/26 11:47:03;;;;;;;;;;;;;;;3.20;72.33;101814.77;108965;1254;123070;-83
2023/01/26 11:49:37;;;;;;;;;;;;;;;3.19;72.40;101811.60;108943;1256;58744;-84
2023/01/26 11:52:20;;;;;;;;;;;;;;;3.22;72.44;101806.41;109035;1254;123990;-83
2023/01/26 11:54:58;;;;;;;;;;;;;;;3.28;72.37;101803.89;108939;1254;73044;-84
2023/01/26 11:57:37;;;;;;;;;;;;;;;3.31;72.35;101797.84;108897;1254;66045;-84
2023/01/26 12:00:16;;;;;;;;;;;;;;;3.31;72.18;101799.06;107964;1254;71525;-83
2023/01/26 12:02:43;;;;;;;;;;;;;;;3.32;72.08;101793.56;108104;1254;59422;-84
2023/01/26 12:05:12;;;;;;;;;;;;;;;3.32;72.22;101794.80;107660;1254;124424;-83
2023/01/26 12:07:53;;;;;;;;;;;;;;;3.29;72.05;101796.20;107752;1254;73075;-83
2023/01/26 12:10:22;;;;;;;;;;;;;;;3.26;72.13;101800.80;107798;1256;123544;-83
2023/01/26 12:12:54;;;;;;;;;;;;;;;3.23;72.22;101797.63;109047;1254;71369;-83
2023/01/26 12:15:38;;;;;;;;;;;;;;;3.18;72.04;101797.41;109088;1254;57889;-83
2023/01/26 12:18:16;;;;;;;;;;;;;;;3.08;72.01;101795.16;108877;1260;58675;-83
2023/01/26 12:20:48;;;;;;;;;;;;;;;3.01;72.12;101788.42;109137;1258;72893;-83
2023/01/26 12:23:35;;;;;;;;;;;;;;;3.00;72.26;101787.45;108958;1253;123830;-83
2023/01/26 12:26:02;;;;;;;;;;;;;;;2.97;72.25;101790.52;109016;1254;72808;-82
2023/01/26 12:28:42;;;;;;;;;;;;;;;2.93;72.42;101788.55;108847;1254;123287;-83
2023/01/26 12:31:13;;;;;;;;;;;;;;;2.91;72.59;101788.06;108954;1254;58672;-83
2023/01/26 12:33:39;;;;;;;;;;;;;;;2.89;72.60;101787.41;108834;1254;124076;-84
2023/01/26 12:36:12;;;;;;;;;;;;;;;2.85;72.58;101779.15;108948;1254;57472;-82
2023/01/26 12:38:57;;;;;;;;;;;;;;;2.83;72.60;101771.54;108918;1254;72123;-83
2023/01/26 12:41:35;;;;;;;;;;;;;;;2.78;72.74;101770.27;109007;1254;123676;-83
2023/01/26 12:44:17;;;;;;;;;;;;;;;2.75;72.75;101767.80;109094;1259;59340;-83
2023/01/26 12:46:53;;;;;;;;;;;;;;;2.69;73.01;101771.60;108877;1254;124698;-83
2023/01/26 12:49:28;;;;;;;;;;;;;;;2.66;72.96;101767.71;109129;1254;66778;-83
2023/01/26 12:51:55;;;;;;;;;;;;;;;2.65;73.04;101764.69;108956;1254;124146;-83
2023/01/26 12:54:48;;;;;;;;;;;;;;;2.66;73.12;101762.14;108924;1254;57889;-82
2023/01/26 12:57:17;;;;;;;;;;;;;;;2.65;73.16;101764.82;109005;1254;60198;-83
2023/01/26 12:59:46;;;;;;;;;;;;;;;2.65;73.31;101762.45;108746;1260;123860;-83
2023/01/26 13:02:15;;;;;;;;;;;;;;;2.65;73.27;101761.73;109109;1257;66738;-83
2023/01/26 13:04:44;;;;;;;;;;;;;;;2.64;73.29;101759.38;109120;1253;123946;-83
2023/01/26 13:07:40;;;;;;;;;;;;;;;2.63;73.36;101755.89;109174;1254;57425;-83
2023/01/26 13:10:26;;;;;;;;;;;;;;;2.61;73.20;101751.86;108479;1260;123524;-83
2023/01/26 13:13:11;;;;;;;;;;;;;;;2.62;73.44;101749.00;108634;1261;72904;-84
2023/01/26 13:15:39;;;;;;;;;;;;;;;2.61;73.37;101745.98;108510;1261;124585;-85
2023/01/26 13:18:08;;;;;;;;;;;;;;;2.59;73.29;101742.88;108518;1260;71420;-83
2023/01/26 13:20:45;;;;;;;;;;;;;;;2.57;73.53;101741.20;108386;1266;59014;-84
2023/01/26 13:23:30;;;;;;;;;;;;;;;2.57;73.52;101744.70;108305;1261;124666;-84
2023/01/26 13:26:15;;;;;;;;;;;;;;;2.60;73.46;101743.33;108588;1261;70498;-82
2023/01/26 13:28:41;;;;;;;;;;;;;;;2.63;73.44;101738.55;108409;1262;124591;-83
2023/01/26 13:31:10;;;;;;;;;;;;;;;2.66;73.65;101735.50;108447;1260;73026;-83
2023/01/26 13:33:38;;;;;;;;;;;;;;;2.72;73.65;101733.13;108430;1260;58402;-83
2023/01/26 13:36:11;;;;;;;;;;;;;;;2.74;73.47;101731.71;108446;1261;58798;-83
2023/01/26 13:38:39;;;;;;;;;;;;;;;2.71;73.52;101728.73;108337;1261;73491;-83